Time;durP1;ratioP1;P1;durP2;ratioP2;P2;SDS_P1;SDS_P2;PMS_P1;PMS_P2;Temp;Humidity;BMP_temperature;BMP_pressure;BME280_temperature;BME280_humidity;BME280_pressure;Samples;Min_cycle;Max_cycle;Signal;HPM_P1;HPM_P2
2021/08/31 00:01:03;;;;;;;2.65;1.83;;;16.40;65.20;;;;;;4977509;28;96440;-50
2021/08/31 00:03:35;;;;;;;2.13;1.55;;;16.50;65.70;;;;;;4984033;28;98095;-58
2021/08/31 00:06:07;;;;;;;2.22;1.63;;;16.50;64.30;;;;;;4983754;28;96180;-57
2021/08/31 00:08:38;;;;;;;4.05;3.70;;;16.60;63.30;;;;;;4983360;28;95880;-56
2021/08/31 00:11:09;;;;;;;3.00;2.70;;;16.60;64.40;;;;;;4982547;28;96331;-60
2021/08/31 00:13:40;;;;;;;3.33;2.35;;;16.60;63.10;;;;;;4961683;28;95609;-55
2021/08/31 00:16:12;;;;;;;4.15;2.15;;;16.70;65.50;;;;;;4973415;28;97028;-54
2021/08/31 00:18:43;;;;;;;1.70;1.52;;;16.80;66.10;;;;;;4981278;28;95688;-51
2021/08/31 00:21:16;;;;;;;2.15;1.95;;;16.90;66.40;;;;;;4982179;28;95906;-54
2021/08/31 00:23:47;;;;;;;2.88;1.90;;;17.10;66.70;;;;;;4983541;28;95776;-54
2021/08/31 00:26:19;;;;;;;2.22;1.70;;;17.10;66.70;;;;;;4981324;28;96285;-53
2021/08/31 00:28:50;;;;;;;2.25;1.65;;;17.20;66.80;;;;;;4981090;28;95872;-55
2021/08/31 00:31:21;;;;;;;3.50;1.55;;;17.30;67.00;;;;;;4956719;28;96221;-55
2021/08/31 00:33:52;;;;;;;2.47;1.15;;;17.40;67.10;;;;;;4979237;28;95793;-55
2021/08/31 00:36:24;;;;;;;1.60;1.10;;;17.40;67.00;;;;;;4979685;28;96247;-56
2021/08/31 00:38:56;;;;;;;;;;;17.40;66.40;;;;;;4965012;28;95378;-57
2021/08/31 00:41:28;;;;;;;2.05;1.35;;;17.40;66.30;;;;;;4984594;28;95753;-56
2021/08/31 00:43:59;;;;;;;1.35;1.17;;;17.40;66.10;;;;;;4982571;28;95903;-56
2021/08/31 00:46:30;;;;;;;3.22;0.60;;;17.40;66.10;;;;;;4961141;28;96549;-55
2021/08/31 00:49:01;;;;;;;0.85;0.60;;;17.30;61.10;;;;;;4972867;28;95849;-56
2021/08/31 00:51:33;;;;;;;0.60;0.50;;;17.20;58.10;;;;;;4969320;28;95276;-57
2021/08/31 00:54:04;;;;;;;0.63;0.63;;;17.10;59.90;;;;;;4975700;28;95611;-52
2021/08/31 00:56:36;;;;;;;1.55;0.60;;;17.00;58.20;;;;;;4981484;28;96012;-56
2021/08/31 00:59:07;;;;;;;0.85;0.70;;;17.00;57.30;;;;;;4977262;28;95733;-55
2021/08/31 01:01:38;;;;;;;0.85;0.50;;;17.00;58.00;;;;;;4966526;28;95867;-56
2021/08/31 01:04:13;;;;;;;0.82;0.40;;;17.00;58.00;;;;;;4982347;28;95702;-53
2021/08/31 01:06:47;;;;;;;1.02;0.43;;;17.00;57.20;;;;;;4980324;28;97170;-51
2021/08/31 01:09:30;;;;;;;1.40;1.00;;;17.00;57.20;;;;;;4977967;28;95839;-51
2021/08/31 01:12:04;;;;;;;1.73;0.57;;;17.00;56.20;;;;;;4972847;28;95883;-54
2021/08/31 01:14:35;;;;;;;0.75;0.57;;;17.00;56.60;;;;;;4970466;28;96646;-55
2021/08/31 01:17:05;;;;;;;1.02;0.60;;;17.00;56.50;;;;;;4962666;28;96204;-51
2021/08/31 01:19:36;;;;;;;1.25;0.70;;;17.00;55.20;;;;;;4967223;28;95450;-53
2021/08/31 01:22:13;;;;;;;1.42;0.77;;;17.10;56.40;;;;;;4985183;28;95310;-56
2021/08/31 01:24:45;;;;;;;2.05;0.80;;;17.10;54.50;;;;;;4982036;28;95986;-49
2021/08/31 01:27:17;;;;;;;1.17;0.60;;;17.00;54.50;;;;;;4978457;28;96508;-54
2021/08/31 01:29:49;;;;;;;0.75;0.70;;;17.10;54.80;;;;;;4949636;28;96181;-54
2021/08/31 01:32:19;;;;;;;1.00;0.75;;;17.20;56.40;;;;;;4962283;28;95755;-54
2021/08/31 01:34:53;;;;;;;0.65;0.65;;;17.20;56.40;;;;;;4969405;28;95833;-51
2021/08/31 01:37:25;;;;;;;1.80;0.85;;;17.30;55.30;;;;;;4969114;28;96498;-54
2021/08/31 01:39:56;;;;;;;2.28;0.85;;;17.30;54.80;;;;;;4975914;28;95917;-53
2021/08/31 01:42:48;;;;;;;1.73;0.95;;;17.50;55.70;;;;;;4952317;28;95462;-58
2021/08/31 01:45:19;;;;;;;2.42;1.55;;;17.60;55.30;;;;;;4968375;28;95385;-54
2021/08/31 01:47:50;;;;;;;1.13;0.70;;;17.60;54.50;;;;;;4964424;28;95919;-52
2021/08/31 01:50:27;;;;;;;0.82;0.77;;;17.60;54.00;;;;;;4966098;28;95750;-57
2021/08/31 01:52:57;;;;;;;1.60;0.73;;;17.70;56.50;;;;;;4979592;28;95297;-57
2021/08/31 01:55:27;;;;;;;1.05;0.65;;;17.80;59.00;;;;;;4978399;28;95910;-55
2021/08/31 01:57:57;;;;;;;1.00;0.63;;;17.70;59.30;;;;;;4971199;28;97112;-56
2021/08/31 02:00:28;;;;;;;1.35;0.88;;;17.70;60.00;;;;;;4966397;28;95535;-57
2021/08/31 02:02:59;;;;;;;3.73;0.77;;;17.70;60.30;;;;;;4968582;28;95689;-57
2021/08/31 02:05:31;;;;;;;1.35;0.60;;;17.70;60.60;;;;;;4953823;28;95675;-56
2021/08/31 02:08:01;;;;;;;2.00;0.50;;;17.70;60.80;;;;;;4965942;28;96427;-57
2021/08/31 02:10:32;;;;;;;;;;;17.70;61.00;;;;;;4966846;28;95801;-55
2021/08/31 02:13:02;;;;;;;0.47;0.40;;;17.70;61.30;;;;;;4981022;28;96001;-56
2021/08/31 02:15:35;;;;;;;1.17;0.50;;;17.80;61.40;;;;;;4972208;28;95695;-56
2021/08/31 02:18:06;;;;;;;1.10;0.70;;;17.80;61.90;;;;;;4977097;28;95934;-56
2021/08/31 02:20:36;;;;;;;;;;;17.90;61.90;;;;;;4985600;28;95680;-56
2021/08/31 02:23:07;;;;;;;0.85;0.40;;;17.90;61.80;;;;;;4973613;28;95767;-55
2021/08/31 02:25:38;;;;;;;0.63;0.63;;;17.90;61.90;;;;;;4982478;28;95434;-56
2021/08/31 02:28:09;;;;;;;0.45;0.45;;;18.00;62.20;;;;;;4958176;28;96331;-55
2021/08/31 02:30:40;;;;;;;3.38;1.13;;;18.00;62.10;;;;;;4963848;28;95638;-55
2021/08/31 02:33:11;;;;;;;3.33;0.80;;;18.00;62.30;;;;;;4969065;28;95786;-56
2021/08/31 02:35:44;;;;;;;0.57;0.50;;;18.00;62.50;;;;;;4975659;28;95727;-55
2021/08/31 02:38:16;;;;;;;0.65;0.50;;;18.20;62.60;;;;;;4962591;28;98106;-54
2021/08/31 02:40:46;;;;;;;0.50;0.50;;;18.30;62.60;;;;;;4952299;28;95476;-53
2021/08/31 02:43:18;;;;;;;0.63;0.45;;;18.40;62.70;;;;;;4972330;28;95805;-48
2021/08/31 02:45:50;;;;;;;0.95;0.70;;;18.50;63.00;;;;;;4972585;28;95404;-55
2021/08/31 02:48:21;;;;;;;0.85;0.63;;;18.50;62.40;;;;;;4970583;28;95925;-56
2021/08/31 02:50:55;;;;;;;0.70;0.50;;;18.50;62.60;;;;;;4975455;28;95663;-54
2021/08/31 02:53:24;;;;;;;0.60;0.60;;;18.60;63.10;;;;;;4974765;28;95667;-59
2021/08/31 02:55:54;;;;;;;1.20;0.65;;;18.70;63.20;;;;;;4985406;28;95684;-59
2021/08/31 02:58:25;;;;;;;2.45;0.50;;;18.80;63.10;;;;;;4981783;28;96652;-55
2021/08/31 03:03:48;;;;;;;0.88;0.50;;;19.00;63.30;;;;;;4979181;28;95625;-52
2021/08/31 03:06:20;;;;;;;0.40;0.40;;;19.10;63.50;;;;;;4983705;28;95788;-56
2021/08/31 03:08:51;;;;;;;0.55;0.52;;;19.20;63.50;;;;;;4982354;28;96350;-52
2021/08/31 03:11:21;;;;;;;1.37;0.77;;;19.30;63.50;;;;;;4983020;28;95714;-52
2021/08/31 03:13:52;;;;;;;;;;;19.50;63.50;;;;;;4984083;28;95873;-52
2021/08/31 03:16:23;;;;;;;1.55;0.55;;;19.60;63.60;;;;;;4981657;28;96335;-57
2021/08/31 03:18:54;;;;;;;0.45;0.40;;;19.70;63.50;;;;;;4960527;28;97679;-60
2021/08/31 03:21:26;;;;;;;2.15;0.77;;;19.70;63.40;;;;;;4978996;28;96055;-54
2021/08/31 03:23:58;;;;;;;2.20;0.50;;;19.80;63.50;;;;;;4983871;28;96279;-55
2021/08/31 03:26:30;;;;;;;1.25;0.50;;;20.00;63.50;;;;;;4983151;28;95668;-52
2021/08/31 03:29:02;;;;;;;1.27;0.38;;;20.00;63.40;;;;;;4964688;28;98735;-57
2021/08/31 03:31:32;;;;;;;1.60;0.63;;;20.00;58.90;;;;;;4961603;28;96161;-54
2021/08/31 03:34:03;;;;;;;1.20;0.50;;;20.00;58.30;;;;;;4965631;28;95810;-55
2021/08/31 03:36:37;;;;;;;1.10;0.60;;;20.10;58.50;;;;;;4976515;28;96052;-51
2021/08/31 03:39:08;;;;;;;;;;;20.20;58.10;;;;;;4963530;28;98343;-53
2021/08/31 03:41:40;;;;;;;0.57;0.55;;;20.20;56.20;;;;;;4985163;28;97360;-50
2021/08/31 03:44:12;;;;;;;2.05;0.60;;;20.30;56.00;;;;;;4983176;28;95959;-50
2021/08/31 03:46:43;;;;;;;5.25;1.25;;;20.30;54.80;;;;;;4980355;28;97399;-54
2021/08/31 03:49:13;;;;;;;1.05;0.73;;;20.20;48.80;;;;;;4982108;28;96086;-54
2021/08/31 03:51:44;;;;;;;1.63;0.57;;;19.80;49.70;;;;;;4980015;28;95923;-54
2021/08/31 03:54:15;;;;;;;1.00;0.40;;;19.80;51.90;;;;;;4976874;28;95741;-53
2021/08/31 03:56:47;;;;;;;3.50;0.50;;;19.90;52.40;;;;;;4981679;28;95817;-53
2021/08/31 03:59:18;;;;;;;0.88;0.52;;;19.90;52.40;;;;;;4981735;28;96162;-51
2021/08/31 04:01:49;;;;;;;1.35;0.60;;;19.70;49.80;;;;;;4977699;28;95944;-53
2021/08/31 04:04:20;;;;;;;2.50;0.82;;;19.70;52.20;;;;;;4981749;28;95973;-55
2021/08/31 04:06:51;;;;;;;1.80;1.38;;;19.50;49.20;;;;;;4982870;28;95633;-57
2021/08/31 04:09:22;;;;;;;3.58;2.05;;;19.50;51.20;;;;;;4979043;28;96660;-55
2021/08/31 04:11:53;;;;;;;4.80;2.97;;;19.70;50.10;;;;;;4977951;28;97078;-53
2021/08/31 04:14:26;;;;;;;4.32;2.88;;;19.70;51.00;;;;;;4981441;28;95820;-51
2021/08/31 04:16:57;;;;;;;5.28;3.00;;;19.80;50.80;;;;;;4980411;28;96735;-54
2021/08/31 04:19:28;;;;;;;5.05;2.67;;;19.90;51.70;;;;;;4982574;28;96203;-57
2021/08/31 04:22:01;;;;;;;5.72;3.00;;;20.00;51.30;;;;;;4981219;28;96019;-50
2021/08/31 04:24:31;;;;;;;10.80;6.78;;;20.00;51.40;;;;;;4981917;28;95959;-53
2021/08/31 04:27:03;;;;;;;6.22;4.05;;;20.10;50.20;;;;;;4974624;28;95396;-49
2021/08/31 04:29:34;;;;;;;3.88;2.35;;;20.10;50.60;;;;;;4980810;28;99131;-47
2021/08/31 04:32:06;;;;;;;4.93;3.70;;;20.20;51.30;;;;;;4976390;28;96612;-48
2021/08/31 04:34:37;;;;;;;4.15;3.05;;;20.20;51.50;;;;;;4981815;28;95305;-49
2021/08/31 04:37:08;;;;;;;4.75;2.58;;;20.30;51.40;;;;;;4982538;28;96408;-47
2021/08/31 04:39:38;;;;;;;;;;;20.40;51.20;;;;;;4982577;28;96177;-46
2021/08/31 04:42:10;;;;;;;3.13;1.77;;;20.40;52.40;;;;;;4963026;28;95947;-48
2021/08/31 04:44:43;;;;;;;4.75;3.05;;;20.50;51.40;;;;;;4977856;28;96072;-47
2021/08/31 04:47:15;;;;;;;3.53;1.80;;;20.60;51.20;;;;;;4978953;28;95637;-49
2021/08/31 04:49:47;;;;;;;5.03;3.72;;;20.60;50.70;;;;;;4980457;28;96331;-47
2021/08/31 04:52:18;;;;;;;4.95;2.80;;;20.70;51.00;;;;;;4982600;28;96447;-50
2021/08/31 04:54:48;;;;;;;3.73;2.40;;;20.80;50.90;;;;;;4982605;28;95827;-48
2021/08/31 04:57:21;;;;;;;4.68;1.55;;;20.70;49.70;;;;;;4965570;28;95894;-47
2021/08/31 04:59:52;;;;;;;3.20;1.83;;;20.70;52.40;;;;;;4976862;28;96924;-46
2021/08/31 05:02:23;;;;;;;1.50;1.30;;;20.80;53.40;;;;;;4977566;28;96269;-43
2021/08/31 05:04:55;;;;;;;2.72;1.70;;;20.80;54.10;;;;;;4979520;28;95739;-46
2021/08/31 05:07:26;;;;;;;1.60;1.38;;;21.00;54.60;;;;;;4981600;28;95291;-44
2021/08/31 05:09:57;;;;;;;;;;;21.00;55.00;;;;;;4982491;28;97421;-45
2021/08/31 05:12:28;;;;;;;1.42;1.10;;;21.10;55.10;;;;;;4998327;28;95830;-45
2021/08/31 05:15:03;;;;;;;1.65;1.08;;;21.10;55.40;;;;;;4979719;28;95893;-46
2021/08/31 05:17:34;;;;;;;1.58;1.00;;;21.20;55.70;;;;;;4976612;28;95786;-46
2021/08/31 05:20:11;;;;;;;3.85;1.27;;;21.20;55.80;;;;;;4980682;28;96305;-47
2021/08/31 05:22:42;;;;;;;1.55;1.05;;;21.30;56.00;;;;;;4963865;28;96614;-49
2021/08/31 05:25:12;;;;;;;1.00;0.90;;;21.30;56.10;;;;;;4981438;28;96487;-47
2021/08/31 05:27:42;;;;;;;1.67;0.88;;;21.30;56.20;;;;;;4981710;28;95186;-48
2021/08/31 05:30:14;;;;;;;2.00;0.90;;;21.30;56.40;;;;;;4981983;28;96083;-47
2021/08/31 05:32:44;;;;;;;;;;;21.10;56.80;;;;;;4974347;28;96455;-49
2021/08/31 05:35:14;;;;;;;1.27;1.00;;;21.00;57.20;;;;;;4977969;28;96543;-49
2021/08/31 05:37:46;;;;;;;3.20;0.90;;;21.00;57.70;;;;;;4982448;28;95372;-49
2021/08/31 05:40:20;;;;;;;0.95;0.95;;;20.90;58.10;;;;;;4980880;28;96136;-48
2021/08/31 05:42:51;;;;;;;1.67;1.02;;;20.90;58.30;;;;;;4980479;28;96339;-45
2021/08/31 05:45:22;;;;;;;2.05;1.05;;;20.80;58.60;;;;;;4977804;28;96099;-47
2021/08/31 05:47:54;;;;;;;0.93;0.70;;;20.80;58.50;;;;;;4981506;28;95433;-46
2021/08/31 05:50:27;;;;;;;2.22;0.73;;;20.80;58.80;;;;;;4975929;28;95859;-47
2021/08/31 05:52:57;;;;;;;2.83;1.17;;;20.80;58.80;;;;;;4961770;28;96047;-49
2021/08/31 05:55:27;;;;;;;1.30;0.85;;;20.80;58.80;;;;;;4980785;28;96107;-46
2021/08/31 05:57:59;;;;;;;;;;;20.80;58.60;;;;;;4983460;28;95915;-46
2021/08/31 06:00:29;;;;;;;1.95;0.70;;;20.70;58.90;;;;;;4964569;28;96051;-46
2021/08/31 06:03:00;;;;;;;2.40;0.93;;;20.70;59.00;;;;;;4966439;28;104080;-46
2021/08/31 06:05:31;;;;;;;1.17;1.08;;;20.70;59.00;;;;;;4983290;28;95936;-47
2021/08/31 06:08:02;;;;;;;1.63;1.03;;;20.70;58.90;;;;;;4979479;28;95601;-45
2021/08/31 06:10:33;;;;;;;;;;;20.70;58.80;;;;;;4966873;28;96829;-49
2021/08/31 06:13:04;;;;;;;2.60;0.98;;;20.70;58.70;;;;;;4985539;28;95935;-47
2021/08/31 06:15:37;;;;;;;2.30;1.23;;;20.80;58.80;;;;;;4981161;28;96544;-47
2021/08/31 06:18:08;;;;;;;1.02;0.80;;;20.70;58.70;;;;;;4984134;28;96363;-49
2021/08/31 06:20:40;;;;;;;0.85;0.68;;;20.80;58.80;;;;;;4983986;28;96491;-47
2021/08/31 06:23:11;;;;;;;;;;;20.80;58.70;;;;;;4961635;28;95702;-51
2021/08/31 06:25:41;;;;;;;1.63;0.70;;;20.80;58.70;;;;;;4982269;28;95775;-48
2021/08/31 06:28:11;;;;;;;1.33;0.68;;;20.80;58.70;;;;;;4983984;28;96065;-49
2021/08/31 06:30:43;;;;;;;1.08;0.98;;;20.80;58.70;;;;;;4979428;28;98812;-47
2021/08/31 06:33:14;;;;;;;1.45;0.80;;;20.80;58.80;;;;;;4982816;28;95856;-51
2021/08/31 06:35:48;;;;;;;4.60;1.75;;;20.80;58.70;;;;;;4982009;28;95770;-49
2021/08/31 06:38:20;;;;;;;0.50;0.50;;;20.80;58.70;;;;;;4964429;28;95743;-49
2021/08/31 06:40:51;;;;;;;2.50;1.10;;;20.70;58.80;;;;;;4978992;28;96020;-47
2021/08/31 06:43:22;;;;;;;1.52;0.60;;;20.70;58.70;;;;;;4981764;28;96108;-48
2021/08/31 06:45:53;;;;;;;0.85;0.85;;;20.70;58.70;;;;;;4964176;28;96129;-48
2021/08/31 06:48:24;;;;;;;0.70;0.70;;;20.70;58.70;;;;;;4984880;28;95377;-45
2021/08/31 06:50:55;;;;;;;1.08;0.90;;;20.70;58.70;;;;;;4983328;28;96656;-48
2021/08/31 06:53:26;;;;;;;0.85;0.70;;;20.70;58.80;;;;;;4983135;28;98270;-43
2021/08/31 06:55:57;;;;;;;3.15;0.70;;;20.70;59.00;;;;;;4979578;28;95796;-51
2021/08/31 06:58:28;;;;;;;2.97;0.75;;;20.60;59.10;;;;;;4962863;28;96703;-44
2021/08/31 07:00:59;;;;;;;;;;;20.50;59.20;;;;;;4963324;28;96171;-56
2021/08/31 07:03:29;;;;;;;1.50;1.05;;;20.50;59.30;;;;;;4984546;28;95838;-57
2021/08/31 07:06:18;;;;;;;6.32;1.10;;;20.50;59.70;;;;;;4983665;28;95750;-55
2021/08/31 07:08:50;;;;;;;1.63;0.90;;;20.50;59.80;;;;;;4982078;28;96987;-47
2021/08/31 07:11:21;;;;;;;3.90;1.08;;;20.50;60.10;;;;;;4980766;28;96648;-48
2021/08/31 07:13:52;;;;;;;;;;;20.50;60.10;;;;;;4976076;28;95864;-47
2021/08/31 07:16:23;;;;;;;1.35;1.02;;;20.50;60.20;;;;;;4978023;28;95883;-48
2021/08/31 07:18:54;;;;;;;1.17;0.77;;;20.50;60.20;;;;;;4983062;28;96073;-51
2021/08/31 07:21:25;;;;;;;1.10;0.73;;;20.40;60.10;;;;;;4983194;28;96809;-47
2021/08/31 07:23:55;;;;;;;1.20;0.80;;;20.40;59.90;;;;;;4981840;28;96048;-48
2021/08/31 07:26:26;;;;;;;1.67;0.80;;;20.40;60.00;;;;;;4981822;28;95681;-49
2021/08/31 07:28:58;;;;;;;2.33;0.82;;;20.30;60.40;;;;;;4980403;28;95828;-54
2021/08/31 07:31:29;;;;;;;2.35;0.60;;;20.40;60.30;;;;;;4972954;28;98609;-49
2021/08/31 07:33:59;;;;;;;1.40;0.90;;;20.40;60.40;;;;;;4981057;28;95941;-48
2021/08/31 07:36:30;;;;;;;1.40;1.30;;;20.40;60.10;;;;;;4982659;28;97107;-49
2021/08/31 07:39:01;;;;;;;;;;;20.40;60.30;;;;;;4984574;28;95256;-55
2021/08/31 07:41:32;;;;;;;1.20;0.63;;;20.30;60.40;;;;;;4983151;28;95953;-54
2021/08/31 07:44:03;;;;;;;1.98;1.00;;;20.40;60.30;;;;;;4981466;28;96381;-55
2021/08/31 07:46:34;;;;;;;0.60;0.60;;;20.30;60.10;;;;;;4976507;28;96123;-53
2021/08/31 07:49:05;;;;;;;1.80;0.70;;;20.40;60.20;;;;;;4979980;28;95779;-57
2021/08/31 07:51:36;;;;;;;;;;;20.30;60.10;;;;;;4982348;28;96942;-48
2021/08/31 07:54:07;;;;;;;1.03;0.80;;;20.30;60.20;;;;;;4984956;28;96402;-51
2021/08/31 07:56:38;;;;;;;0.82;0.80;;;20.30;60.40;;;;;;4984073;28;96255;-52
2021/08/31 07:59:10;;;;;;;1.00;0.70;;;20.30;60.50;;;;;;4983502;28;95809;-53
2021/08/31 08:01:40;;;;;;;;;;;20.30;60.50;;;;;;4978459;28;96579;-49
2021/08/31 08:04:12;;;;;;;2.47;0.90;;;20.30;60.60;;;;;;4979208;28;95613;-51
2021/08/31 08:06:43;;;;;;;1.63;0.80;;;20.30;60.60;;;;;;4982723;28;96028;-50
2021/08/31 08:09:13;;;;;;;0.88;0.60;;;20.30;60.50;;;;;;4983288;28;95694;-49
2021/08/31 08:11:44;;;;;;;2.28;1.00;;;20.30;60.50;;;;;;4983351;28;96637;-51
2021/08/31 08:14:15;;;;;;;;;;;20.20;60.40;;;;;;4983121;28;95877;-52
2021/08/31 08:16:46;;;;;;;0.80;0.60;;;20.30;60.50;;;;;;4961112;28;95964;-51
2021/08/31 08:19:18;;;;;;;0.60;0.60;;;20.30;61.10;;;;;;4979309;28;96408;-51
2021/08/31 08:21:49;;;;;;;;;;;20.30;60.40;;;;;;4975780;28;96019;-50
2021/08/31 08:24:19;;;;;;;0.40;0.40;;;20.30;60.50;;;;;;4982278;28;95931;-50
2021/08/31 08:26:51;;;;;;;0.68;0.68;;;20.30;60.50;;;;;;4981187;28;95730;-52
2021/08/31 08:29:25;;;;;;;0.82;0.77;;;20.30;60.40;;;;;;4982829;28;95652;-51
2021/08/31 08:31:59;;;;;;;0.70;0.63;;;20.30;60.50;;;;;;4977526;28;95770;-50
2021/08/31 08:34:34;;;;;;;0.77;0.60;;;20.30;60.50;;;;;;4979556;28;95683;-50
2021/08/31 08:37:06;;;;;;;0.65;0.57;;;20.30;60.50;;;;;;4958350;28;95851;-49
2021/08/31 08:39:38;;;;;;;0.90;0.60;;;20.30;60.50;;;;;;4977347;28;96072;-54
2021/08/31 08:42:11;;;;;;;2.17;0.70;;;20.30;60.40;;;;;;4980552;28;96869;-51
2021/08/31 08:44:43;;;;;;;1.17;0.80;;;20.30;60.50;;;;;;4962851;28;96501;-52
2021/08/31 08:47:14;;;;;;;0.75;0.60;;;20.20;60.40;;;;;;4979166;28;95859;-51
2021/08/31 08:49:46;;;;;;;1.55;0.60;;;20.30;60.40;;;;;;4982349;28;95641;-50
2021/08/31 08:52:18;;;;;;;0.80;0.80;;;20.30;60.40;;;;;;4980709;28;95326;-51
2021/08/31 08:54:48;;;;;;;0.85;0.75;;;20.30;60.30;;;;;;4977095;28;96022;-51
2021/08/31 08:57:19;;;;;;;0.80;0.77;;;20.30;60.40;;;;;;4966010;28;95823;-50
2021/08/31 08:59:51;;;;;;;0.80;0.60;;;20.20;60.30;;;;;;4980015;28;95824;-51
2021/08/31 09:02:51;;;;;;;0.88;0.80;;;20.30;60.50;;;;;;4976902;28;96661;-51
2021/08/31 09:05:31;;;;;;;0.80;0.50;;;20.20;60.40;;;;;;4965709;28;96496;-49
2021/08/31 09:08:06;;;;;;;0.85;0.70;;;20.20;60.40;;;;;;4981303;28;95794;-50
2021/08/31 09:10:41;;;;;;;1.13;0.77;;;20.20;60.60;;;;;;4973712;28;95967;-49
2021/08/31 09:13:18;;;;;;;1.00;0.57;;;20.20;60.50;;;;;;4979144;28;96479;-47
2021/08/31 09:15:50;;;;;;;0.80;0.80;;;20.20;60.50;;;;;;4978272;28;95886;-52
2021/08/31 09:18:25;;;;;;;0.70;0.70;;;20.20;60.50;;;;;;4964443;28;95641;-52
2021/08/31 09:20:55;;;;;;;0.77;0.73;;;20.20;60.50;;;;;;4963568;28;96412;-50
2021/08/31 09:23:37;;;;;;;1.00;0.80;;;20.20;60.50;;;;;;4979783;28;96085;-48
2021/08/31 09:26:18;;;;;;;0.60;0.60;;;20.20;60.50;;;;;;4977845;28;95914;-51
2021/08/31 09:28:53;;;;;;;0.60;0.60;;;20.20;60.50;;;;;;4976282;28;95864;-49
2021/08/31 09:31:25;;;;;;;1.10;0.60;;;20.20;60.50;;;;;;4978114;28;96295;-50
2021/08/31 09:33:57;;;;;;;1.00;0.90;;;20.20;60.50;;;;;;4962030;28;96728;-51
2021/08/31 09:36:27;;;;;;;0.88;0.80;;;20.20;60.50;;;;;;4979071;28;96577;-49
2021/08/31 09:39:02;;;;;;;0.65;0.65;;;20.20;60.60;;;;;;4980525;28;95824;-50
2021/08/31 09:41:39;;;;;;;0.57;0.57;;;20.20;60.60;;;;;;4979778;28;95285;-50
2021/08/31 09:44:32;;;;;;;1.25;0.70;;;20.20;60.60;;;;;;4974456;28;96218;-49
2021/08/31 09:47:04;;;;;;;0.70;0.70;;;20.10;60.50;;;;;;4976182;28;96070;-54
2021/08/31 09:49:39;;;;;;;0.82;0.82;;;20.10;60.60;;;;;;4981215;28;96072;-51
2021/08/31 09:52:16;;;;;;;1.20;0.80;;;20.10;60.50;;;;;;4965363;28;95836;-49
2021/08/31 09:54:50;;;;;;;1.98;1.00;;;20.10;60.50;;;;;;4981316;28;96780;-48
2021/08/31 09:57:35;;;;;;;1.55;1.35;;;20.10;60.90;;;;;;4962549;28;96065;-48
2021/08/31 10:00:18;;;;;;;1.42;0.93;;;20.10;60.70;;;;;;4975286;28;95799;-49
2021/08/31 10:02:48;;;;;;;1.33;0.75;;;20.10;60.70;;;;;;4978844;28;95695;-49
2021/08/31 10:05:21;;;;;;;0.70;0.70;;;20.10;60.70;;;;;;4979668;28;96557;-47
2021/08/31 10:07:52;;;;;;;0.82;0.77;;;20.10;60.70;;;;;;4964012;28;95964;-48
2021/08/31 10:10:24;;;;;;;0.95;0.73;;;20.10;60.70;;;;;;4980927;28;95767;-49
2021/08/31 10:12:57;;;;;;;0.60;0.60;;;20.10;60.60;;;;;;4964584;28;96155;-48
2021/08/31 10:15:30;;;;;;;0.70;0.70;;;20.10;60.60;;;;;;4973913;28;100694;-48
2021/08/31 10:18:01;;;;;;;1.20;1.00;;;20.10;60.70;;;;;;4975017;28;96450;-48
2021/08/31 10:20:32;;;;;;;;;;;20.10;60.80;;;;;;4979653;28;95764;-48
2021/08/31 10:23:38;;;;;;;1.02;0.90;;;20.10;60.80;;;;;;4982849;28;95920;-47
2021/08/31 10:26:24;;;;;;;0.50;0.50;;;20.10;60.80;;;;;;4980112;28;96053;-51
2021/08/31 10:29:16;;;;;;;1.33;1.15;;;20.10;60.90;;;;;;4977781;28;96358;-49
2021/08/31 10:31:51;;;;;;;0.77;0.75;;;20.10;60.80;;;;;;4972551;28;95805;-51
2021/08/31 10:34:32;;;;;;;1.25;1.00;;;20.10;60.90;;;;;;4968318;28;95715;-47
2021/08/31 10:37:22;;;;;;;0.60;0.60;;;20.10;60.90;;;;;;4968516;28;96071;-50
2021/08/31 10:39:57;;;;;;;0.70;0.70;;;20.00;60.90;;;;;;4971660;28;95791;-49
2021/08/31 10:42:34;;;;;;;0.60;0.60;;;20.00;61.00;;;;;;4973481;28;95744;-49
2021/08/31 10:45:26;;;;;;;1.25;0.80;;;20.00;61.00;;;;;;4969473;28;95963;-48
2021/08/31 10:47:58;;;;;;;;;;;19.90;60.90;;;;;;4972227;28;102583;-47
2021/08/31 10:50:30;;;;;;;2.38;0.70;;;19.90;60.90;;;;;;4975526;28;95971;-49
2021/08/31 10:53:06;;;;;;;0.80;0.80;;;19.90;61.00;;;;;;4971048;28;96953;-50
2021/08/31 10:55:39;;;;;;;0.77;0.70;;;19.90;61.10;;;;;;4971009;28;95226;-47
2021/08/31 10:58:11;;;;;;;1.63;0.70;;;19.80;61.10;;;;;;4975647;28;96158;-48
2021/08/31 11:00:43;;;;;;;1.35;0.70;;;19.80;61.20;;;;;;4956420;28;95469;-47
2021/08/31 11:03:31;;;;;;;1.88;1.60;;;19.80;61.30;;;;;;4974924;28;95931;-48
2021/08/31 11:06:31;;;;;;;1.08;0.70;;;19.70;61.30;;;;;;4971708;28;95920;-47
2021/08/31 11:09:18;;;;;;;0.70;0.70;;;19.70;61.30;;;;;;4970909;28;96997;-48
2021/08/31 11:12:00;;;;;;;1.55;0.70;;;19.70;61.30;;;;;;4956556;28;96000;-47
2021/08/31 11:14:46;;;;;;;0.60;0.60;;;19.70;61.20;;;;;;4971523;28;95557;-48
2021/08/31 11:17:38;;;;;;;0.77;0.50;;;19.70;61.90;;;;;;4968826;28;95903;-47
2021/08/31 11:20:34;;;;;;;1.65;1.17;;;19.70;61.40;;;;;;4971491;28;95912;-49
2021/08/31 11:23:09;;;;;;;0.80;0.80;;;19.60;61.30;;;;;;4958250;28;97085;-49
2021/08/31 11:25:40;;;;;;;0.70;0.70;;;19.60;61.40;;;;;;4954042;28;95972;-48
2021/08/31 11:28:18;;;;;;;0.57;0.57;;;19.60;61.50;;;;;;4970847;28;95780;-47
2021/08/31 11:31:05;;;;;;;0.70;0.60;;;19.60;61.50;;;;;;4970585;28;96118;-49
2021/08/31 11:33:55;;;;;;;0.60;0.60;;;19.60;61.50;;;;;;4972194;28;96240;-47
2021/08/31 11:36:31;;;;;;;0.70;0.70;;;19.50;61.60;;;;;;4969439;28;97314;-51
2021/08/31 11:39:09;;;;;;;0.63;0.63;;;19.50;61.50;;;;;;4972610;28;95656;-49
2021/08/31 11:41:40;;;;;;;1.25;0.50;;;19.50;61.50;;;;;;4970968;28;96095;-48
2021/08/31 11:44:16;;;;;;;0.90;0.80;;;19.50;61.60;;;;;;4970073;28;95778;-48
2021/08/31 11:46:55;;;;;;;0.60;0.60;;;19.50;61.60;;;;;;4977794;28;95830;-50
2021/08/31 11:49:32;;;;;;;0.85;0.55;;;19.50;61.70;;;;;;4987614;28;95839;-52
2021/08/31 11:52:18;;;;;;;1.38;0.80;;;19.50;61.70;;;;;;4988184;28;96398;-47
2021/08/31 11:54:55;;;;;;;0.80;0.70;;;19.50;61.70;;;;;;4970873;28;95782;-47
2021/08/31 11:57:34;;;;;;;1.50;1.00;;;19.50;61.70;;;;;;4970122;28;95818;-47
2021/08/31 12:00:06;;;;;;;1.73;1.00;;;19.50;61.70;;;;;;4973086;28;95541;-52
2021/08/31 12:02:41;;;;;;;0.88;0.88;;;19.40;61.60;;;;;;4955423;28;96230;-47
2021/08/31 12:05:11;;;;;;;1.25;1.00;;;19.40;61.80;;;;;;4972314;28;96752;-47
2021/08/31 12:07:45;;;;;;;1.00;1.00;;;19.40;61.80;;;;;;4973294;28;95349;-48
2021/08/31 12:10:22;;;;;;;1.00;0.85;;;19.40;61.80;;;;;;4977604;28;98606;-49
2021/08/31 12:12:54;;;;;;;1.20;1.08;;;19.40;61.80;;;;;;4984375;28;98099;-47
2021/08/31 12:15:26;;;;;;;1.05;0.90;;;19.40;61.90;;;;;;4969942;28;96091;-47
2021/08/31 12:18:08;;;;;;;1.10;1.00;;;19.30;61.90;;;;;;4951709;28;95726;-47
2021/08/31 12:20:41;;;;;;;1.20;0.73;;;19.30;62.00;;;;;;4974867;28;97616;-46
2021/08/31 12:23:13;;;;;;;1.67;0.90;;;19.30;62.00;;;;;;4989293;28;95903;-50
2021/08/31 12:25:51;;;;;;;1.25;0.95;;;19.30;61.90;;;;;;4973642;28;95827;-47
2021/08/31 12:28:22;;;;;;;1.27;1.13;;;19.30;62.00;;;;;;4976472;28;95597;-47
2021/08/31 12:30:54;;;;;;;0.73;0.73;;;19.30;62.10;;;;;;4968858;28;96432;-49
2021/08/31 12:33:27;;;;;;;2.55;1.05;;;19.30;62.10;;;;;;4988563;28;96695;-48
2021/08/31 12:36:09;;;;;;;2.40;1.02;;;19.30;62.20;;;;;;4968455;28;95757;-48
2021/08/31 12:38:49;;;;;;;1.88;1.10;;;19.30;62.20;;;;;;4969788;28;95784;-49
2021/08/31 12:41:23;;;;;;;0.88;0.88;;;19.30;62.20;;;;;;4969196;28;95758;-47
2021/08/31 12:44:02;;;;;;;0.70;0.70;;;19.30;62.20;;;;;;4984213;28;96734;-50
2021/08/31 12:46:35;;;;;;;0.90;0.90;;;19.20;62.30;;;;;;4965577;28;95867;-49
2021/08/31 12:49:11;;;;;;;2.38;1.20;;;19.20;62.40;;;;;;4977524;28;95408;-47
2021/08/31 12:51:54;;;;;;;1.75;1.17;;;19.20;63.20;;;;;;4973710;28;97636;-47
2021/08/31 12:54:35;;;;;;;1.20;1.10;;;19.20;63.10;;;;;;4968951;28;96403;-48
2021/08/31 12:57:08;;;;;;;0.98;0.95;;;19.10;63.50;;;;;;4970170;28;96063;-47
2021/08/31 12:59:42;;;;;;;1.67;1.40;;;19.10;63.50;;;;;;4968144;28;95649;-48
2021/08/31 13:02:14;;;;;;;1.08;0.98;;;19.10;63.70;;;;;;4970299;28;96179;-48
2021/08/31 13:04:45;;;;;;;1.25;1.05;;;19.00;63.70;;;;;;4980458;28;95993;-48
2021/08/31 13:07:18;;;;;;;;;;;19.00;63.80;;;;;;4968951;28;95918;-47
2021/08/31 13:09:51;;;;;;;2.00;1.27;;;19.00;64.00;;;;;;4952710;28;97573;-47
2021/08/31 13:12:24;;;;;;;1.63;1.38;;;19.00;64.10;;;;;;4972068;28;95651;-47
2021/08/31 13:14:56;;;;;;;1.27;1.17;;;19.00;64.20;;;;;;4982923;28;95834;-50
2021/08/31 13:17:28;;;;;;;1.48;1.30;;;19.00;64.20;;;;;;4966319;28;95863;-52
2021/08/31 13:19:59;;;;;;;1.67;1.42;;;18.90;64.50;;;;;;4988015;28;95211;-47
2021/08/31 13:22:30;;;;;;;1.52;1.42;;;18.90;64.60;;;;;;4986653;28;95863;-47
2021/08/31 13:25:00;;;;;;;1.17;1.08;;;18.90;64.60;;;;;;4969033;28;96040;-47
2021/08/31 13:27:31;;;;;;;1.27;1.13;;;18.80;64.60;;;;;;4974658;28;98427;-49